createdAt,value
2019-05-26T00:00:37.343Z,1005.90
2019-05-26T00:01:37.344Z,1005.92
2019-05-26T00:02:37.330Z,1005.90
2019-05-26T00:03:37.326Z,1005.89
2019-05-26T00:04:37.324Z,1005.88
2019-05-26T00:05:37.320Z,1005.87
2019-05-26T00:06:37.317Z,1005.84
2019-05-26T00:07:37.320Z,1005.85
2019-05-26T00:08:37.313Z,1005.85
2019-05-26T00:09:37.309Z,1005.81
2019-05-26T00:10:37.309Z,1005.81
2019-05-26T00:11:37.303Z,1005.78
2019-05-26T00:12:37.303Z,1005.76
2019-05-26T00:13:37.301Z,1005.75
2019-05-26T00:14:37.294Z,1005.74
2019-05-26T00:15:37.294Z,1005.74
2019-05-26T00:16:37.290Z,1005.73
2019-05-26T00:17:37.284Z,1005.74
2019-05-26T00:18:37.283Z,1005.74
2019-05-26T00:19:37.280Z,1005.71
2019-05-26T00:20:37.276Z,1005.72
2019-05-26T00:21:37.273Z,1005.75
2019-05-26T00:22:37.273Z,1005.73
2019-05-26T00:23:37.286Z,1005.71
2019-05-26T00:24:37.267Z,1005.68
2019-05-26T00:25:37.264Z,1005.64
2019-05-26T00:26:37.257Z,1005.67
2019-05-26T00:27:37.257Z,1005.65
2019-05-26T00:28:37.252Z,1005.63
2019-05-26T00:29:37.249Z,1005.64
2019-05-26T00:30:37.246Z,1005.63
2019-05-26T00:31:37.247Z,1005.58
2019-05-26T00:32:37.242Z,1005.59
2019-05-26T00:33:37.236Z,1005.60
2019-05-26T00:34:37.233Z,1005.59
2019-05-26T00:35:37.229Z,1005.60
2019-05-26T00:36:37.227Z,1005.52
2019-05-26T00:37:48.621Z,1005.55
2019-05-26T00:38:37.221Z,1005.54
2019-05-26T00:39:37.219Z,1005.54
2019-05-26T00:40:37.220Z,1005.50
2019-05-26T00:41:37.215Z,1005.48
2019-05-26T00:42:37.210Z,1005.44
2019-05-26T00:43:37.211Z,1005.44
2019-05-26T00:44:37.206Z,1005.44
2019-05-26T00:45:37.201Z,1005.40
2019-05-26T00:46:37.197Z,1005.40
2019-05-26T00:47:37.194Z,1005.38
2019-05-26T00:48:37.191Z,1005.33
2019-05-26T00:49:37.188Z,1005.33
2019-05-26T00:50:37.197Z,1005.35
2019-05-26T00:51:37.181Z,1005.30
2019-05-26T00:52:37.179Z,1005.29
2019-05-26T00:53:37.180Z,1005.32
2019-05-26T00:54:37.173Z,1005.28
2019-05-26T00:55:37.169Z,1005.23
2019-05-26T00:56:37.165Z,1005.22
2019-05-26T00:57:37.164Z,1005.22
2019-05-26T00:58:37.159Z,1005.20
2019-05-26T00:59:37.161Z,1005.25
2019-05-26T01:00:37.160Z,1005.24
2019-05-26T01:01:37.151Z,1005.25
2019-05-26T01:02:37.147Z,1005.21
2019-05-26T01:03:37.144Z,1005.20
2019-05-26T01:04:37.140Z,1005.19
2019-05-26T01:05:37.137Z,1005.21
2019-05-26T01:06:37.133Z,1005.21
2019-05-26T01:07:37.131Z,1005.22
2019-05-26T01:08:37.128Z,1005.24
2019-05-26T01:09:37.127Z,1005.21
2019-05-26T01:10:37.123Z,1005.21
2019-05-26T01:11:37.128Z,1005.20
2019-05-26T01:12:37.116Z,1005.23
2019-05-26T01:13:37.114Z,1005.22
2019-05-26T01:14:37.107Z,1005.26
2019-05-26T01:15:37.105Z,1005.26
2019-05-26T01:16:37.102Z,1005.28
2019-05-26T01:17:37.098Z,1005.28
2019-05-26T01:18:37.096Z,1005.26
2019-05-26T01:19:37.092Z,1005.24
2019-05-26T01:20:37.089Z,1005.31
2019-05-26T01:21:37.084Z,1005.28
2019-05-26T01:22:37.082Z,1005.29
2019-05-26T01:23:37.079Z,1005.28
2019-05-26T01:24:37.082Z,1005.26
2019-05-26T01:25:37.074Z,1005.22
2019-05-26T01:26:37.075Z,1005.23
2019-05-26T01:27:37.065Z,1005.24
2019-05-26T01:28:37.064Z,1005.24
2019-05-26T01:29:37.068Z,1005.19
2019-05-26T01:30:37.058Z,1005.20
2019-05-26T01:31:37.053Z,1005.16
2019-05-26T01:32:37.050Z,1005.16
2019-05-26T01:33:37.045Z,1005.18
2019-05-26T01:34:37.042Z,1005.13
2019-05-26T01:35:37.039Z,1005.19
2019-05-26T01:36:37.035Z,1005.16
2019-05-26T01:37:37.030Z,1005.16
2019-05-26T01:38:37.028Z,1005.13
2019-05-26T01:39:37.025Z,1005.11
2019-05-26T01:40:37.024Z,1005.12
2019-05-26T01:41:37.017Z,1005.08
2019-05-26T01:42:37.015Z,1005.07
2019-05-26T01:43:37.012Z,1005.11
2019-05-26T01:44:37.010Z,1005.11
2019-05-26T01:45:37.005Z,1005.04
2019-05-26T01:46:37.002Z,1005.07
2019-05-26T01:47:36.997Z,1005.02
2019-05-26T01:48:36.995Z,1005.03
2019-05-26T01:49:36.990Z,1005.02
2019-05-26T01:50:36.986Z,1005.03
2019-05-26T01:51:36.983Z,1005.04
2019-05-26T01:52:36.980Z,1005.00
2019-05-26T01:53:36.977Z,1004.98
2019-05-26T01:54:40.593Z,1005.00
2019-05-26T01:55:36.972Z,1005.00
2019-05-26T01:56:36.967Z,1004.97
2019-05-26T01:57:36.962Z,1005.01
2019-05-26T01:58:36.959Z,1005.02
2019-05-26T01:59:36.955Z,1004.98
2019-05-26T02:00:36.959Z,1004.98
2019-05-26T02:01:36.950Z,1005.00
2019-05-26T02:02:36.944Z,1005.00
2019-05-26T02:03:36.941Z,1004.98
2019-05-26T02:04:36.939Z,1005.01
2019-05-26T02:05:36.935Z,1005.00
2019-05-26T02:06:36.931Z,1004.98
2019-05-26T02:07:36.958Z,1004.93
2019-05-26T02:08:39.695Z,1005.01
2019-05-26T02:09:36.920Z,1004.97
2019-05-26T02:10:36.917Z,1004.96
2019-05-26T02:11:36.918Z,1004.99
2019-05-26T02:12:36.912Z,1004.93
2019-05-26T02:13:36.907Z,1004.91
2019-05-26T02:14:36.904Z,1004.96
2019-05-26T02:15:36.902Z,1004.99
2019-05-26T02:16:36.898Z,1004.96
2019-05-26T02:17:36.895Z,1004.92
2019-05-26T02:18:36.890Z,1004.90
2019-05-26T02:19:36.887Z,1004.90
2019-05-26T02:20:36.962Z,1004.90
2019-05-26T02:21:36.879Z,1004.88
2019-05-26T02:22:36.876Z,1004.82
2019-05-26T02:23:36.872Z,1004.85
2019-05-26T02:24:36.869Z,1004.83
2019-05-26T02:25:36.864Z,1004.84
2019-05-26T02:26:36.861Z,1004.79
2019-05-26T02:27:36.859Z,1004.84
2019-05-26T02:28:36.856Z,1004.79
2019-05-26T02:29:36.852Z,1004.81
2019-05-26T02:30:36.848Z,1004.81
2019-05-26T02:31:36.845Z,1004.79
2019-05-26T02:32:36.842Z,1004.81
2019-05-26T02:33:36.838Z,1004.76
2019-05-26T02:34:36.834Z,1004.77
2019-05-26T02:35:36.836Z,1004.75
2019-05-26T02:36:36.829Z,1004.80
2019-05-26T02:37:36.825Z,1004.75
2019-05-26T02:38:36.823Z,1004.75
2019-05-26T02:39:36.818Z,1004.72
2019-05-26T02:40:36.815Z,1004.73
2019-05-26T02:41:36.809Z,1004.77
2019-05-26T02:42:36.806Z,1004.78
2019-05-26T02:43:36.813Z,1004.76
2019-05-26T02:44:36.803Z,1004.75
2019-05-26T02:45:36.796Z,1004.71
2019-05-26T02:46:36.792Z,1004.68
2019-05-26T02:47:36.799Z,1004.69
2019-05-26T02:48:36.787Z,1004.68
2019-05-26T02:49:36.782Z,1004.69
2019-05-26T02:50:36.801Z,1004.68
2019-05-26T02:51:36.773Z,1004.70
2019-05-26T02:52:36.772Z,1004.69
2019-05-26T02:53:36.789Z,1004.67
2019-05-26T02:54:36.766Z,1004.66
2019-05-26T02:55:36.759Z,1004.63
2019-05-26T02:56:36.872Z,1004.62
2019-05-26T02:57:36.752Z,1004.66
2019-05-26T02:58:36.749Z,1004.64
2019-05-26T02:59:36.749Z,1004.64
2019-05-26T03:00:36.744Z,1004.65
2019-05-26T03:01:36.741Z,1004.68
2019-05-26T03:02:36.737Z,1004.64
2019-05-26T03:03:36.735Z,1004.64
2019-05-26T03:04:36.728Z,1004.64
2019-05-26T03:05:36.729Z,1004.61
2019-05-26T03:06:36.724Z,1004.64
2019-05-26T03:07:36.718Z,1004.62
2019-05-26T03:08:36.716Z,1004.63
2019-05-26T03:09:36.712Z,1004.62
2019-05-26T03:10:36.718Z,1004.61
2019-05-26T03:11:36.705Z,1004.62
2019-05-26T03:12:36.701Z,1004.61
2019-05-26T03:13:36.700Z,1004.59
2019-05-26T03:14:36.693Z,1004.58
2019-05-26T03:15:36.690Z,1004.61
2019-05-26T03:16:36.688Z,1004.62
2019-05-26T03:17:36.683Z,1004.64
2019-05-26T03:18:36.680Z,1004.64
2019-05-26T03:19:36.685Z,1004.67
2019-05-26T03:20:36.673Z,1004.69
2019-05-26T03:21:36.668Z,1004.68
2019-05-26T03:22:36.665Z,1004.69
2019-05-26T03:23:36.663Z,1004.65
2019-05-26T03:24:36.659Z,1004.66
2019-05-26T03:25:36.658Z,1004.66
2019-05-26T03:26:36.654Z,1004.64
2019-05-26T03:27:36.656Z,1004.64
2019-05-26T03:28:36.647Z,1004.66
2019-05-26T03:29:36.643Z,1004.66
2019-05-26T03:30:36.645Z,1004.64
2019-05-26T03:31:36.656Z,1004.64
2019-05-26T03:32:36.635Z,1004.71
2019-05-26T03:33:36.629Z,1004.68
2019-05-26T03:34:36.625Z,1004.69
2019-05-26T03:35:36.622Z,1004.69
2019-05-26T03:36:36.621Z,1004.66
2019-05-26T03:37:36.615Z,1004.62
2019-05-26T03:38:36.611Z,1004.65
2019-05-26T03:39:44.282Z,1004.63
2019-05-26T03:40:36.606Z,1004.63
2019-05-26T03:41:36.600Z,1004.63
2019-05-26T03:42:36.598Z,1004.65
2019-05-26T03:43:36.595Z,1004.61
2019-05-26T03:44:36.601Z,1004.59
2019-05-26T03:45:36.589Z,1004.62
2019-05-26T03:46:36.585Z,1004.61
2019-05-26T03:47:36.589Z,1004.56
2019-05-26T03:48:36.583Z,1004.55
2019-05-26T03:49:36.576Z,1004.56
2019-05-26T03:50:36.573Z,1004.54
2019-05-26T03:51:36.569Z,1004.53
2019-05-26T03:52:36.592Z,1004.51
2019-05-26T03:53:36.565Z,1004.55
2019-05-26T03:54:36.564Z,1004.51
2019-05-26T03:55:36.560Z,1004.49
2019-05-26T03:56:36.561Z,1004.46
2019-05-26T03:57:36.557Z,1004.45
2019-05-26T03:58:36.576Z,1004.42
2019-05-26T03:59:36.544Z,1004.43
2019-05-26T04:00:36.548Z,1004.43
2019-05-26T04:01:36.557Z,1004.41
2019-05-26T04:02:36.632Z,1004.42
2019-05-26T04:03:36.531Z,1004.41
2019-05-26T04:04:36.533Z,1004.38
2019-05-26T04:05:36.527Z,1004.41
2019-05-26T04:06:36.519Z,1004.38
2019-05-26T04:07:36.525Z,1004.41
2019-05-26T04:08:36.515Z,1004.41
2019-05-26T04:09:36.510Z,1004.39
2019-05-26T04:10:36.509Z,1004.39
2019-05-26T04:11:36.509Z,1004.44
2019-05-26T04:12:36.540Z,1004.45
2019-05-26T04:13:36.498Z,1004.48
2019-05-26T04:14:36.497Z,1004.46
2019-05-26T04:15:36.497Z,1004.47
2019-05-26T04:16:36.491Z,1004.48
2019-05-26T04:17:36.521Z,1004.49
2019-05-26T04:18:36.492Z,1004.46
2019-05-26T04:19:36.478Z,1004.43
2019-05-26T04:20:36.477Z,1004.45
2019-05-26T04:21:36.475Z,1004.44
2019-05-26T04:22:36.469Z,1004.44
2019-05-26T04:23:36.469Z,1004.42
2019-05-26T04:24:36.462Z,1004.49
2019-05-26T04:25:36.476Z,1004.41
2019-05-26T04:26:36.458Z,1004.42
2019-05-26T04:27:36.455Z,1004.46
2019-05-26T04:28:36.451Z,1004.46
2019-05-26T04:29:36.448Z,1004.49
2019-05-26T04:30:36.444Z,1004.47
2019-05-26T04:31:36.445Z,1004.44
2019-05-26T04:32:36.440Z,1004.45
2019-05-26T04:33:36.435Z,1004.47
2019-05-26T04:34:36.432Z,1004.46
2019-05-26T04:35:36.430Z,1004.45
2019-05-26T04:36:36.425Z,1004.46
2019-05-26T04:37:36.431Z,1004.46
2019-05-26T04:38:36.420Z,1004.50
2019-05-26T04:39:36.422Z,1004.48
2019-05-26T04:40:36.415Z,1004.45
2019-05-26T04:41:36.411Z,1004.48
2019-05-26T04:42:36.414Z,1004.48
2019-05-26T04:43:36.406Z,1004.47
2019-05-26T04:44:36.402Z,1004.45
2019-05-26T04:45:36.401Z,1004.46
2019-05-26T04:46:36.396Z,1004.48
2019-05-26T04:47:36.392Z,1004.47
2019-05-26T04:48:36.391Z,1004.48
2019-05-26T04:49:37.639Z,1004.50
2019-05-26T04:50:36.385Z,1004.45
2019-05-26T04:51:36.381Z,1004.47
2019-05-26T04:52:36.392Z,1004.49
2019-05-26T04:53:36.375Z,1004.49
2019-05-26T04:54:36.374Z,1004.50
2019-05-26T04:55:36.373Z,1004.50
2019-05-26T04:56:36.374Z,1004.48
2019-05-26T04:57:36.366Z,1004.52
2019-05-26T04:58:36.363Z,1004.49
2019-05-26T04:59:36.360Z,1004.49
2019-05-26T05:00:36.362Z,1004.53
2019-05-26T05:01:36.354Z,1004.53
2019-05-26T05:02:36.351Z,1004.53
2019-05-26T05:03:36.349Z,1004.51
2019-05-26T05:04:36.347Z,1004.54
2019-05-26T05:05:36.342Z,1004.47
2019-05-26T05:06:36.340Z,1004.50
2019-05-26T05:07:36.338Z,1004.53
2019-05-26T05:08:36.336Z,1004.48
2019-05-26T05:09:36.331Z,1004.47
2019-05-26T05:10:42.273Z,1004.51
2019-05-26T05:11:36.327Z,1004.53
2019-05-26T05:12:36.325Z,1004.57
2019-05-26T05:13:36.321Z,1004.60
2019-05-26T05:14:36.319Z,1004.61
2019-05-26T05:15:36.318Z,1004.56
2019-05-26T05:16:36.317Z,1004.53
2019-05-26T05:17:36.311Z,1004.60
2019-05-26T05:18:36.318Z,1004.57
2019-05-26T05:19:36.309Z,1004.56
2019-05-26T05:20:36.308Z,1004.56
2019-05-26T05:21:36.307Z,1004.55
2019-05-26T05:22:36.303Z,1004.55
2019-05-26T05:23:36.305Z,1004.53
2019-05-26T05:24:36.305Z,1004.52
2019-05-26T05:25:36.300Z,1004.52
2019-05-26T05:26:36.298Z,1004.52
2019-05-26T05:27:36.303Z,1004.50
2019-05-26T05:28:36.296Z,1004.49
2019-05-26T05:29:36.293Z,1004.49
2019-05-26T05:30:36.292Z,1004.44
2019-05-26T05:31:36.291Z,1004.44
2019-05-26T05:32:36.290Z,1004.46
2019-05-26T05:33:36.292Z,1004.50
2019-05-26T05:34:36.291Z,1004.47
2019-05-26T05:35:36.285Z,1004.53
2019-05-26T05:36:36.287Z,1004.51
2019-05-26T05:37:36.283Z,1004.48
2019-05-26T05:38:36.280Z,1004.49
2019-05-26T05:39:36.281Z,1004.49
2019-05-26T05:40:36.287Z,1004.50
2019-05-26T05:41:36.274Z,1004.50
2019-05-26T05:42:36.273Z,1004.46
2019-05-26T05:43:36.271Z,1004.52
2019-05-26T05:44:36.271Z,1004.49
2019-05-26T05:45:36.268Z,1004.46
2019-05-26T05:46:36.271Z,1004.49
2019-05-26T05:47:36.304Z,1004.41
2019-05-26T05:48:36.265Z,1004.44
2019-05-26T05:49:36.263Z,1004.45
2019-05-26T05:50:39.188Z,1004.44
2019-05-26T05:51:36.260Z,1004.45
2019-05-26T05:52:36.259Z,1004.44
2019-05-26T05:53:36.256Z,1004.41
2019-05-26T05:54:36.255Z,1004.39
2019-05-26T05:55:36.254Z,1004.39
2019-05-26T05:56:36.258Z,1004.37
2019-05-26T05:57:36.248Z,1004.35
2019-05-26T05:58:36.251Z,1004.34
2019-05-26T05:59:36.248Z,1004.34
2019-05-26T06:00:36.249Z,1004.34
2019-05-26T06:01:36.243Z,1004.35
2019-05-26T06:02:36.243Z,1004.30
2019-05-26T06:03:36.243Z,1004.28
2019-05-26T06:04:36.242Z,1004.31
2019-05-26T06:05:36.242Z,1004.28
2019-05-26T06:06:36.242Z,1004.27
2019-05-26T06:07:36.235Z,1004.27
2019-05-26T06:08:36.235Z,1004.28
2019-05-26T06:09:36.233Z,1004.28
2019-05-26T06:10:36.232Z,1004.25
2019-05-26T06:11:36.232Z,1004.26
2019-05-26T06:12:36.230Z,1004.23
2019-05-26T06:13:36.240Z,1004.20
2019-05-26T06:14:36.250Z,1004.28
2019-05-26T06:15:36.225Z,1004.24
2019-05-26T06:16:36.231Z,1004.26
2019-05-26T06:17:36.223Z,1004.30
2019-05-26T06:18:36.224Z,1004.29
2019-05-26T06:19:36.220Z,1004.30
2019-05-26T06:20:36.218Z,1004.23
2019-05-26T06:21:36.218Z,1004.27
2019-05-26T06:22:36.218Z,1004.26
2019-05-26T06:23:37.158Z,1004.26
2019-05-26T06:24:36.215Z,1004.27
2019-05-26T06:25:36.214Z,1004.28
2019-05-26T06:26:36.211Z,1004.27
2019-05-26T06:27:36.213Z,1004.26
2019-05-26T06:28:36.210Z,1004.30
2019-05-26T06:29:36.210Z,1004.30
2019-05-26T06:30:36.208Z,1004.32
2019-05-26T06:31:36.207Z,1004.30
2019-05-26T06:32:36.207Z,1004.29
2019-05-26T06:33:36.205Z,1004.26
2019-05-26T06:34:36.204Z,1004.29
2019-05-26T06:35:36.204Z,1004.32
2019-05-26T06:36:36.207Z,1004.33
2019-05-26T06:37:36.200Z,1004.35
2019-05-26T06:38:36.201Z,1004.37
2019-05-26T06:39:36.200Z,1004.37
2019-05-26T06:40:36.200Z,1004.36
2019-05-26T06:41:36.202Z,1004.35
2019-05-26T06:42:36.197Z,1004.32
2019-05-26T06:43:36.196Z,1004.33
2019-05-26T06:44:52.373Z,1004.32
2019-05-26T06:45:36.197Z,1004.34
2019-05-26T06:46:36.195Z,1004.36
2019-05-26T06:47:36.204Z,1004.31
2019-05-26T06:48:36.196Z,1004.30
2019-05-26T06:49:36.194Z,1004.35
2019-05-26T06:50:36.192Z,1004.32
2019-05-26T06:51:36.192Z,1004.34
2019-05-26T06:52:36.198Z,1004.31
2019-05-26T06:53:37.412Z,1004.32
2019-05-26T06:54:36.189Z,1004.30
2019-05-26T06:55:36.190Z,1004.30
2019-05-26T06:56:36.190Z,1004.25
2019-05-26T06:57:36.188Z,1004.27
2019-05-26T06:58:36.189Z,1004.25
2019-05-26T06:59:36.187Z,1004.28
2019-05-26T07:00:36.187Z,1004.21
2019-05-26T07:01:36.187Z,1004.22
2019-05-26T07:02:36.196Z,1004.25
2019-05-26T07:03:36.186Z,1004.31
2019-05-26T07:04:36.185Z,1004.27
2019-05-26T07:05:36.184Z,1004.31
2019-05-26T07:06:36.187Z,1004.32
2019-05-26T07:07:36.182Z,1004.30
2019-05-26T07:08:36.182Z,1004.32
2019-05-26T07:09:36.182Z,1004.34
2019-05-26T07:10:36.182Z,1004.33
2019-05-26T07:11:50.057Z,1004.39
2019-05-26T07:12:36.183Z,1004.39
2019-05-26T07:13:36.183Z,1004.45
2019-05-26T07:14:36.181Z,1004.49
2019-05-26T07:15:36.181Z,1004.51
2019-05-26T07:16:38.488Z,1004.52
2019-05-26T07:17:36.180Z,1004.53
2019-05-26T07:18:36.182Z,1004.52
2019-05-26T07:19:36.180Z,1004.57
2019-05-26T07:20:36.181Z,1004.65
2019-05-26T07:21:36.179Z,1004.51
2019-05-26T07:22:36.180Z,1004.46
2019-05-26T07:23:36.184Z,1004.46
2019-05-26T07:24:36.182Z,1004.41
2019-05-26T07:25:36.182Z,1004.40
2019-05-26T07:26:36.184Z,1004.39
2019-05-26T07:27:36.185Z,1004.36
2019-05-26T07:28:36.185Z,1004.40
2019-05-26T07:29:36.184Z,1004.33
2019-05-26T07:30:36.186Z,1004.41
2019-05-26T07:31:36.187Z,1004.38
2019-05-26T07:32:36.192Z,1004.30
2019-05-26T07:33:36.204Z,1004.40
2019-05-26T07:34:36.189Z,1004.40
2019-05-26T07:35:36.189Z,1004.37
2019-05-26T07:36:36.191Z,1004.43
2019-05-26T07:37:36.209Z,1004.35
2019-05-26T07:38:36.193Z,1004.33
2019-05-26T07:39:36.205Z,1004.34
2019-05-26T07:40:36.197Z,1004.32
2019-05-26T07:41:36.197Z,1004.39
2019-05-26T07:42:36.200Z,1004.38
2019-05-26T07:43:36.201Z,1004.36
2019-05-26T07:44:36.199Z,1004.34
2019-05-26T07:45:36.203Z,1004.31
2019-05-26T07:46:36.200Z,1004.36
2019-05-26T07:47:36.207Z,1004.31
2019-05-26T07:48:36.377Z,1004.32
2019-05-26T07:49:36.203Z,1004.25
2019-05-26T07:50:36.206Z,1004.19
2019-05-26T07:51:36.207Z,1004.25
2019-05-26T07:52:36.220Z,1004.20
2019-05-26T07:53:36.208Z,1004.18
2019-05-26T07:54:36.211Z,1004.20
2019-05-26T07:55:36.211Z,1004.23
2019-05-26T07:56:36.213Z,1004.23
2019-05-26T07:57:36.212Z,1004.26
2019-05-26T07:58:36.215Z,1004.24
2019-05-26T07:59:36.215Z,1004.24
2019-05-26T08:00:36.227Z,1004.27
2019-05-26T08:01:36.638Z,1004.24
2019-05-26T08:02:36.221Z,1004.21
2019-05-26T08:03:36.219Z,1004.18
2019-05-26T08:04:36.221Z,1004.19
2019-05-26T08:05:36.222Z,1004.19
2019-05-26T08:06:36.223Z,1004.18
2019-05-26T08:07:36.227Z,1004.13
2019-05-26T08:08:36.227Z,1004.14
2019-05-26T08:09:36.228Z,1004.13
2019-05-26T08:10:36.229Z,1004.15
2019-05-26T08:11:36.231Z,1004.18
2019-05-26T08:12:36.234Z,1004.16
2019-05-26T08:13:36.235Z,1004.13
2019-05-26T08:14:36.238Z,1004.14
2019-05-26T08:15:36.238Z,1004.19
2019-05-26T08:16:36.241Z,1004.15
2019-05-26T08:17:36.261Z,1004.16
2019-05-26T08:18:36.242Z,1004.19
2019-05-26T08:19:36.245Z,1004.12
2019-05-26T08:20:36.246Z,1004.13
2019-05-26T08:21:36.248Z,1004.10
2019-05-26T08:22:36.255Z,1004.07
2019-05-26T08:23:36.252Z,1004.05
2019-05-26T08:24:36.255Z,1004.07
2019-05-26T08:25:36.257Z,1004.06
2019-05-26T08:26:36.257Z,1004.03
2019-05-26T08:27:36.262Z,1004.04
2019-05-26T08:28:36.262Z,1004.02
2019-05-26T08:29:36.261Z,1004.02
2019-05-26T08:30:36.265Z,1003.98
2019-05-26T08:31:36.267Z,1003.97
2019-05-26T08:32:36.269Z,1004.03
2019-05-26T08:33:36.268Z,1004.04
2019-05-26T08:34:36.274Z,1004.02
2019-05-26T08:35:36.275Z,1004.06
2019-05-26T08:36:36.277Z,1004.03
2019-05-26T08:37:36.277Z,1003.97
2019-05-26T08:38:36.278Z,1004.04
2019-05-26T08:39:36.280Z,1004.03
2019-05-26T08:40:36.283Z,1004.06
2019-05-26T08:41:36.289Z,1004.01
2019-05-26T08:42:44.212Z,1004.04
2019-05-26T08:43:36.292Z,1004.05
2019-05-26T08:44:36.291Z,1004.07
2019-05-26T08:45:36.292Z,1004.06
2019-05-26T08:46:36.292Z,1004.04
2019-05-26T08:47:36.296Z,1004.02
2019-05-26T08:48:36.297Z,1004.07
2019-05-26T08:49:36.296Z,1004.01
2019-05-26T08:50:36.300Z,1003.98
2019-05-26T08:51:36.301Z,1004.02
2019-05-26T08:52:36.302Z,1003.97
2019-05-26T08:53:36.304Z,1003.97
2019-05-26T08:54:36.306Z,1003.98
2019-05-26T08:55:36.307Z,1003.93
2019-05-26T08:56:36.308Z,1003.96
2019-05-26T08:57:36.309Z,1003.90
2019-05-26T08:58:36.310Z,1003.92
2019-05-26T08:59:36.313Z,1003.86
2019-05-26T09:00:36.314Z,1003.90
2019-05-26T09:01:36.314Z,1003.89
2019-05-26T09:02:36.317Z,1003.87
2019-05-26T09:03:36.319Z,1003.82
2019-05-26T09:04:36.320Z,1003.88
2019-05-26T09:05:36.321Z,1003.78
2019-05-26T09:06:36.323Z,1003.81
2019-05-26T09:07:36.328Z,1003.81
2019-05-26T09:08:36.327Z,1003.77
2019-05-26T09:09:36.332Z,1003.82
2019-05-26T09:10:36.331Z,1003.80
2019-05-26T09:11:36.335Z,1003.83
2019-05-26T09:12:36.334Z,1003.85
2019-05-26T09:13:36.336Z,1003.82
2019-05-26T09:14:36.355Z,1003.82
2019-05-26T09:15:36.341Z,1003.82
2019-05-26T09:16:36.344Z,1003.81
2019-05-26T09:17:36.344Z,1003.82
2019-05-26T09:18:36.348Z,1003.84
2019-05-26T09:19:36.350Z,1003.87
2019-05-26T09:20:36.352Z,1003.85
2019-05-26T09:21:36.356Z,1003.86
2019-05-26T09:22:36.356Z,1003.87
2019-05-26T09:23:36.360Z,1003.89
2019-05-26T09:24:36.361Z,1003.82
2019-05-26T09:25:36.364Z,1003.86
2019-05-26T09:26:36.367Z,1003.86
2019-05-26T09:27:36.370Z,1003.81
2019-05-26T09:28:36.373Z,1003.73
2019-05-26T09:29:36.376Z,1003.75
2019-05-26T09:30:36.379Z,1003.80
2019-05-26T09:31:36.395Z,1003.79
2019-05-26T09:32:36.385Z,1003.80
2019-05-26T09:33:36.390Z,1003.79
2019-05-26T09:34:36.390Z,1003.80
2019-05-26T09:35:36.397Z,1003.77
2019-05-26T09:36:36.400Z,1003.81
2019-05-26T09:37:36.402Z,1003.77
2019-05-26T09:38:36.405Z,1003.84
2019-05-26T09:39:36.408Z,1003.78
2019-05-26T09:40:36.412Z,1003.75
2019-05-26T09:41:36.416Z,1003.72
2019-05-26T09:42:36.421Z,1003.77
2019-05-26T09:43:36.423Z,1003.73
2019-05-26T09:44:36.427Z,1003.69
2019-05-26T09:45:36.429Z,1003.71
2019-05-26T09:46:36.433Z,1003.74
2019-05-26T09:47:36.445Z,1003.68
2019-05-26T09:48:36.443Z,1003.73
2019-05-26T09:49:36.445Z,1003.77
2019-05-26T09:50:36.450Z,1003.81
2019-05-26T09:51:36.455Z,1003.77
2019-05-26T09:52:36.459Z,1003.85
2019-05-26T09:53:36.461Z,1003.76
2019-05-26T09:54:36.470Z,1003.79
2019-05-26T09:55:36.472Z,1003.84
2019-05-26T09:56:36.475Z,1003.85
2019-05-26T09:57:36.480Z,1003.90
2019-05-26T09:58:36.484Z,1003.84
2019-05-26T09:59:36.500Z,1003.80
2019-05-26T10:00:36.493Z,1003.79
2019-05-26T10:01:36.497Z,1003.77
2019-05-26T10:02:36.503Z,1003.74
2019-05-26T10:03:36.506Z,1003.70
2019-05-26T10:04:36.510Z,1003.74
2019-05-26T10:05:36.514Z,1003.70
2019-05-26T10:06:36.518Z,1003.78
2019-05-26T10:07:36.525Z,1004.09
2019-05-26T10:08:36.529Z,1003.69
2019-05-26T10:09:36.534Z,1003.72
2019-05-26T10:10:36.539Z,1003.65
2019-05-26T10:11:36.542Z,1003.66
2019-05-26T10:12:36.570Z,1003.67
2019-05-26T10:13:36.551Z,1003.71
2019-05-26T10:14:36.557Z,1003.68
2019-05-26T10:15:36.566Z,1003.63
2019-05-26T10:16:36.567Z,1003.75
2019-05-26T10:17:36.570Z,1003.69
2019-05-26T10:18:36.577Z,1003.67
2019-05-26T10:19:36.584Z,1003.66
2019-05-26T10:20:36.586Z,1003.58
2019-05-26T10:21:36.590Z,1003.60
2019-05-26T10:22:36.596Z,1003.66
2019-05-26T10:23:36.606Z,1003.62
2019-05-26T10:24:36.606Z,1003.60
2019-05-26T10:25:36.610Z,1003.64
2019-05-26T10:26:36.615Z,1003.62
2019-05-26T10:27:36.621Z,1003.60
2019-05-26T10:28:36.629Z,1003.60
2019-05-26T10:29:36.666Z,1003.55
2019-05-26T10:30:36.637Z,1003.58
2019-05-26T10:31:36.641Z,1003.61
2019-05-26T10:32:36.648Z,1003.56
2019-05-26T10:33:36.650Z,1003.52
2019-05-26T10:34:36.661Z,1003.55
2019-05-26T10:35:36.663Z,1003.57
2019-05-26T10:36:36.666Z,1003.64
2019-05-26T10:37:36.671Z,1003.63
2019-05-26T10:38:36.676Z,1003.55
2019-05-26T10:39:36.682Z,1003.57
2019-05-26T10:40:36.687Z,1003.61
2019-05-26T10:41:36.699Z,1003.70
2019-05-26T10:42:36.696Z,1003.59
2019-05-26T10:43:46.903Z,1003.63
2019-05-26T10:44:36.708Z,1003.57
2019-05-26T10:45:36.712Z,1003.54
2019-05-26T10:46:36.718Z,1003.51
2019-05-26T10:47:36.723Z,1003.53
2019-05-26T10:48:36.729Z,1003.53
2019-05-26T10:49:36.738Z,1003.52
2019-05-26T10:50:36.740Z,1003.46
2019-05-26T10:51:36.745Z,1003.47
2019-05-26T10:52:36.754Z,1003.46
2019-05-26T10:53:36.755Z,1003.42
2019-05-26T10:54:36.762Z,1003.42
2019-05-26T10:55:36.766Z,1003.43
2019-05-26T10:56:36.772Z,1003.43
2019-05-26T10:57:36.781Z,1003.50
2019-05-26T10:58:36.782Z,1003.43
2019-05-26T10:59:36.787Z,1003.44
2019-05-26T11:00:36.795Z,1003.42
2019-05-26T11:01:36.799Z,1003.40
2019-05-26T11:02:36.824Z,1003.46
2019-05-26T11:03:36.813Z,1003.41
2019-05-26T11:04:36.814Z,1003.41
2019-05-26T11:05:36.819Z,1003.44
2019-05-26T11:06:36.824Z,1003.38
2019-05-26T11:07:36.830Z,1003.36
2019-05-26T11:08:36.835Z,1003.40
2019-05-26T11:09:36.901Z,1003.38
2019-05-26T11:10:36.862Z,1003.34
2019-05-26T11:11:36.853Z,1003.34
2019-05-26T11:12:36.856Z,1003.39
2019-05-26T11:13:36.866Z,1003.42
2019-05-26T11:14:36.864Z,1003.35
2019-05-26T11:15:36.871Z,1003.31
2019-05-26T11:16:36.878Z,1003.27
2019-05-26T11:17:36.881Z,1003.31
2019-05-26T11:18:36.885Z,1003.27
2019-05-26T11:19:36.893Z,1003.23
2019-05-26T11:20:36.896Z,1003.23
2019-05-26T11:21:36.901Z,1003.23
2019-05-26T11:22:36.905Z,1003.18
2019-05-26T11:23:36.911Z,1003.20
2019-05-26T11:24:36.918Z,1003.16
2019-05-26T11:25:36.922Z,1003.24
2019-05-26T11:26:36.929Z,1003.13
2019-05-26T11:27:36.933Z,1003.13
2019-05-26T11:28:36.939Z,1003.12
2019-05-26T11:29:36.942Z,1003.09
2019-05-26T11:30:36.948Z,1003.10
2019-05-26T11:31:36.953Z,1003.07
2019-05-26T11:32:36.963Z,1003.07
2019-05-26T11:33:36.965Z,1003.08
2019-05-26T11:34:36.969Z,1003.09
2019-05-26T11:35:36.976Z,1003.06
2019-05-26T11:36:36.981Z,1003.07
2019-05-26T11:37:36.988Z,1003.05
2019-05-26T11:38:36.991Z,1003.09
2019-05-26T11:39:36.997Z,1002.99
2019-05-26T11:40:37.008Z,1003.02
2019-05-26T11:41:37.006Z,1003.02
2019-05-26T11:42:37.011Z,1003.08
2019-05-26T11:43:37.017Z,1003.06
2019-05-26T11:44:37.022Z,1002.99
2019-05-26T11:45:37.074Z,1003.05
2019-05-26T11:46:37.037Z,1002.96
2019-05-26T11:47:37.043Z,1003.03
2019-05-26T11:48:39.133Z,1003.01
2019-05-26T11:49:37.051Z,1003.00
2019-05-26T11:50:37.055Z,1003.06
2019-05-26T11:51:37.069Z,1003.04
2019-05-26T11:52:37.066Z,1003.02
2019-05-26T11:53:37.071Z,1003.04
2019-05-26T11:54:37.084Z,1003.01
2019-05-26T11:55:37.083Z,1003.03
2019-05-26T11:56:37.089Z,1002.94
2019-05-26T11:57:37.505Z,1002.97
2019-05-26T11:58:37.099Z,1002.86
2019-05-26T11:59:37.110Z,1002.91
2019-05-26T12:00:37.112Z,1002.85
2019-05-26T12:01:37.128Z,1002.89
2019-05-26T12:02:37.122Z,1002.83
2019-05-26T12:03:37.129Z,1002.93
2019-05-26T12:04:37.135Z,1002.85
2019-05-26T12:05:37.139Z,1002.76